createdAt,value
2019-02-25T00:01:45.555Z,3.70
2019-02-25T00:04:14.474Z,3.70
2019-02-25T00:06:44.164Z,3.60
2019-02-25T00:09:13.986Z,3.60
2019-02-25T00:11:43.220Z,3.60
2019-02-25T00:14:12.521Z,3.60
2019-02-25T00:16:43.082Z,3.60
2019-02-25T00:19:14.394Z,3.60
2019-02-25T00:21:43.840Z,3.50
2019-02-25T00:24:12.858Z,3.50
2019-02-25T00:26:41.707Z,3.60
2019-02-25T00:29:10.653Z,3.60
2019-02-25T00:31:39.799Z,3.60
2019-02-25T00:34:11.119Z,3.60
2019-02-25T00:36:40.765Z,3.60
2019-02-25T00:39:09.765Z,3.60
2019-02-25T00:41:39.028Z,3.60
2019-02-25T00:44:07.925Z,3.60
2019-02-25T00:46:36.815Z,3.60
2019-02-25T00:49:11.946Z,3.50
2019-02-25T00:51:41.245Z,3.50
2019-02-25T00:54:10.493Z,3.40
2019-02-25T00:56:39.804Z,3.40
2019-02-25T00:59:09.003Z,3.40
2019-02-25T01:01:37.949Z,3.30
2019-02-25T01:04:08.268Z,3.30
2019-02-25T01:06:37.289Z,3.20
2019-02-25T01:09:06.962Z,3.20
2019-02-25T01:11:35.949Z,3.10
2019-02-25T01:14:05.354Z,3.20
2019-02-25T01:16:34.323Z,3.30
2019-02-25T01:19:03.232Z,3.20
2019-02-25T01:21:32.114Z,3.30
2019-02-25T01:24:01.340Z,3.20
2019-02-25T01:26:30.597Z,3.30
2019-02-25T01:29:00.674Z,3.30
2019-02-25T01:31:29.891Z,3.30
2019-02-25T01:33:58.793Z,3.30
2019-02-25T01:36:27.699Z,3.30
2019-02-25T01:38:56.849Z,3.30
2019-02-25T01:41:26.083Z,3.30
2019-02-25T01:43:55.319Z,3.20
2019-02-25T01:46:25.431Z,3.20
2019-02-25T01:48:57.547Z,3.20
2019-02-25T01:51:27.507Z,3.20
2019-02-25T01:53:59.645Z,3.20
2019-02-25T01:56:28.466Z,3.30
2019-02-25T01:58:59.535Z,3.40
2019-02-25T02:01:28.376Z,3.40
2019-02-25T02:04:04.879Z,3.40
2019-02-25T02:06:34.463Z,3.50
2019-02-25T02:12:39.151Z,3.50
2019-02-25T02:15:11.311Z,3.50
2019-02-25T02:17:40.272Z,3.50
2019-02-25T02:20:10.219Z,3.50
2019-02-25T02:22:40.173Z,3.50
2019-02-25T02:25:09.391Z,3.50
2019-02-25T02:27:38.845Z,3.50
2019-02-25T02:30:11.015Z,3.50
2019-02-25T02:33:08.665Z,3.50
2019-02-25T02:35:40.795Z,3.50
2019-02-25T02:38:11.354Z,3.50
2019-02-25T02:40:42.798Z,3.60
2019-02-25T02:43:12.625Z,3.60
2019-02-25T02:45:54.344Z,3.60
2019-02-25T02:48:30.502Z,3.60
2019-02-25T02:50:59.583Z,3.60
2019-02-25T02:53:34.515Z,3.60
2019-02-25T02:56:03.755Z,3.50
2019-02-25T02:58:32.730Z,3.50
2019-02-25T03:01:04.162Z,3.50
2019-02-25T03:03:33.065Z,3.50
2019-02-25T03:06:02.291Z,3.50
2019-02-25T03:08:35.091Z,3.60
2019-02-25T03:11:03.991Z,3.60
2019-02-25T03:13:33.009Z,3.60
2019-02-25T03:16:01.916Z,3.60
2019-02-25T03:18:30.735Z,3.70
2019-02-25T03:20:59.660Z,3.60
2019-02-25T03:23:28.698Z,3.60
2019-02-25T03:25:57.634Z,3.60
2019-02-25T03:28:37.540Z,3.60
2019-02-25T03:30:57.807Z,3.60
2019-02-25T03:33:26.614Z,3.60
2019-02-25T03:35:55.929Z,3.70
2019-02-25T03:41:03.010Z,3.70
2019-02-25T03:43:31.930Z,3.70
2019-02-25T03:46:03.512Z,3.70
2019-02-25T03:48:32.529Z,3.60
2019-02-25T03:51:01.576Z,3.70
2019-02-25T03:53:30.439Z,3.60
2019-02-25T03:55:59.777Z,3.60
2019-02-25T03:58:28.663Z,3.60
2019-02-25T04:00:57.634Z,3.60
2019-02-25T04:03:26.654Z,3.60
2019-02-25T04:05:55.927Z,3.60
2019-02-25T04:08:24.819Z,3.60
2019-02-25T04:10:55.430Z,3.60
2019-02-25T04:13:24.622Z,3.60
2019-02-25T04:15:55.664Z,3.60
2019-02-25T04:18:42.605Z,3.60
2019-02-25T04:21:11.517Z,3.50
2019-02-25T04:23:43.809Z,3.50
2019-02-25T04:26:12.721Z,3.50
2019-02-25T04:28:42.159Z,3.40
2019-02-25T04:31:11.133Z,3.40
2019-02-25T04:33:40.073Z,3.40
2019-02-25T04:36:12.020Z,3.30
2019-02-25T04:38:41.328Z,3.30
2019-02-25T04:42:01.859Z,3.20
2019-02-25T04:44:37.485Z,3.20
2019-02-25T04:47:08.425Z,3.10
2019-02-25T04:49:37.275Z,3.10
2019-02-25T04:52:06.151Z,3.10
2019-02-25T04:54:37.877Z,3.10
2019-02-25T04:57:06.889Z,3.10
2019-02-25T04:59:36.318Z,3.10
2019-02-25T05:02:05.571Z,3.10
2019-02-25T05:04:34.496Z,3.10
2019-02-25T05:07:03.477Z,3.10
2019-02-25T05:09:32.302Z,3.10
2019-02-25T05:12:01.422Z,3.10
2019-02-25T05:14:30.611Z,3.00
2019-02-25T05:17:00.164Z,3.00
2019-02-25T05:19:29.055Z,3.00
2019-02-25T05:21:58.329Z,3.00
2019-02-25T05:24:28.967Z,3.00
2019-02-25T05:26:59.907Z,3.00
2019-02-25T05:29:28.855Z,2.90
2019-02-25T05:31:58.439Z,2.90
2019-02-25T05:34:27.283Z,2.90
2019-02-25T05:36:56.929Z,2.90
2019-02-25T05:39:26.055Z,2.80
2019-02-25T05:41:55.024Z,2.80
2019-02-25T05:44:25.341Z,2.80
2019-02-25T05:46:54.980Z,2.70
2019-02-25T05:49:23.978Z,2.70
2019-02-25T05:51:53.258Z,2.70
2019-02-25T05:54:22.264Z,2.70
2019-02-25T05:56:51.179Z,2.70
2019-02-25T05:59:20.004Z,2.70
2019-02-25T06:01:48.984Z,2.70
2019-02-25T06:04:19.819Z,2.70
2019-02-25T06:06:48.747Z,2.70
2019-02-25T06:09:17.715Z,2.60
2019-02-25T06:11:46.699Z,2.60
2019-02-25T06:14:16.991Z,2.70
2019-02-25T06:16:46.024Z,2.60
2019-02-25T06:19:14.878Z,2.60
2019-02-25T06:21:45.491Z,2.60
2019-02-25T06:24:15.059Z,2.60
2019-02-25T06:26:44.135Z,2.50
2019-02-25T06:29:13.328Z,2.50
2019-02-25T06:31:42.494Z,2.50
2019-02-25T06:34:11.564Z,2.50
2019-02-25T06:36:41.326Z,2.50
2019-02-25T06:39:10.921Z,2.50
2019-02-25T06:41:43.724Z,2.50
2019-02-25T06:44:12.688Z,2.50
2019-02-25T06:46:42.388Z,2.40
2019-02-25T06:49:12.183Z,2.40
2019-02-25T06:51:41.383Z,2.40
2019-02-25T06:54:10.321Z,2.40
2019-02-25T06:56:44.249Z,2.40
2019-02-25T06:59:13.856Z,2.50
2019-02-25T07:01:42.988Z,2.50
2019-02-25T07:04:19.622Z,2.50
2019-02-25T07:06:57.018Z,2.50
2019-02-25T07:09:44.014Z,2.60
2019-02-25T07:12:42.153Z,2.60
2019-02-25T07:15:29.958Z,2.60
2019-02-25T07:18:27.241Z,2.70
2019-02-25T07:21:42.128Z,2.70
2019-02-25T07:24:38.354Z,2.80
2019-02-25T07:27:35.525Z,2.80
2019-02-25T07:30:24.958Z,2.90
2019-02-25T07:33:09.078Z,2.90
2019-02-25T07:35:51.033Z,3.00
2019-02-25T07:38:54.481Z,3.10
2019-02-25T07:41:33.884Z,3.10
2019-02-25T07:44:13.341Z,3.20
2019-02-25T07:47:00.722Z,3.40
2019-02-25T07:50:01.251Z,3.50
2019-02-25T07:52:47.113Z,3.60
2019-02-25T07:55:34.137Z,3.70
2019-02-25T07:58:18.252Z,3.80
2019-02-25T08:01:04.055Z,3.90
2019-02-25T08:03:57.741Z,4.10
2019-02-25T08:06:45.049Z,4.20
2019-02-25T08:09:24.273Z,4.50
2019-02-25T08:12:16.032Z,4.70
2019-02-25T12:41:39.375Z,14.20
2019-02-25T12:44:09.359Z,14.70
2019-02-25T12:46:39.476Z,14.70
2019-02-25T12:49:09.052Z,14.80
2019-02-25T12:51:39.293Z,14.90
2019-02-25T12:54:10.359Z,14.90
2019-02-25T12:56:39.890Z,15.00
2019-02-25T12:59:09.485Z,15.10
2019-02-25T13:08:03.144Z,15.40
2019-02-25T13:10:32.639Z,15.40
2019-02-25T13:13:02.905Z,15.50
2019-02-25T13:15:35.602Z,15.60
2019-02-25T13:18:05.332Z,15.70
2019-02-25T13:20:34.970Z,15.80
2019-02-25T13:23:04.589Z,15.90
2019-02-25T13:25:37.666Z,16.00
2019-02-25T13:28:07.214Z,16.20
2019-02-25T13:30:36.887Z,16.20
2019-02-25T13:33:06.633Z,16.30
2019-02-25T13:35:39.276Z,16.30
2019-02-25T13:38:08.914Z,16.40
2019-02-25T13:40:38.651Z,16.40
2019-02-25T13:43:08.296Z,16.50
2019-02-25T13:45:37.999Z,16.50
2019-02-25T13:48:07.859Z,16.60
2019-02-25T13:50:37.419Z,16.60
2019-02-25T13:53:07.182Z,16.50
2019-02-25T13:55:36.949Z,16.70
2019-02-25T13:58:06.556Z,16.70
2019-02-25T14:00:36.217Z,16.80
2019-02-25T14:03:12.230Z,16.80
2019-02-25T14:05:42.440Z,16.90
2019-02-25T14:08:16.279Z,16.90
2019-02-25T14:10:46.067Z,16.90
2019-02-25T14:13:15.616Z,16.90
2019-02-25T14:19:19.568Z,16.90
2019-02-25T14:21:52.499Z,16.90
2019-02-25T14:24:23.003Z,16.90
2019-02-25T14:26:54.479Z,17.00
2019-02-25T14:29:26.443Z,17.10
2019-02-25T14:31:59.217Z,17.10
2019-02-25T14:34:29.383Z,17.20
2019-02-25T14:37:01.967Z,17.20
2019-02-25T14:39:32.939Z,17.10
2019-02-25T14:42:04.283Z,17.20
2019-02-25T14:44:37.900Z,17.20
2019-02-25T14:47:19.794Z,17.30
2019-02-25T14:49:40.375Z,17.30
2019-02-25T14:52:10.727Z,17.40
2019-02-25T14:54:41.087Z,17.40
2019-02-25T14:57:10.769Z,17.60
2019-02-25T14:59:40.279Z,17.60
2019-02-25T15:02:13.435Z,17.70
2019-02-25T15:04:46.361Z,17.70
2019-02-25T15:07:16.017Z,17.60
2019-02-25T15:09:45.823Z,17.60
2019-02-25T15:12:16.787Z,17.70
2019-02-25T15:14:46.381Z,17.70
2019-02-25T15:17:23.430Z,17.70
2019-02-25T15:19:54.162Z,17.70
2019-02-25T15:22:23.961Z,17.70
2019-02-25T15:24:55.030Z,17.70
2019-02-25T15:27:25.753Z,17.70
2019-02-25T15:29:55.795Z,17.70
2019-02-25T15:32:25.579Z,17.70
2019-02-25T15:35:00.227Z,17.70
2019-02-25T15:37:29.772Z,17.80
2019-02-25T15:40:00.251Z,17.70
2019-02-25T15:42:30.547Z,17.70
2019-02-25T15:45:05.138Z,17.70
2019-02-25T15:47:34.602Z,17.70
2019-02-25T15:50:08.085Z,17.60
2019-02-25T15:52:40.117Z,17.60
2019-02-25T15:55:13.052Z,17.50
2019-02-25T15:57:44.446Z,17.40
2019-02-25T16:00:16.151Z,17.30
2019-02-25T16:02:45.879Z,17.40
2019-02-25T16:05:15.935Z,17.50
2019-02-25T16:07:45.802Z,17.60
2019-02-25T16:10:16.382Z,17.60
2019-02-25T16:12:51.205Z,17.50
2019-02-25T16:15:20.856Z,17.40
2019-02-25T16:17:51.639Z,17.30
2019-02-25T16:20:21.785Z,17.10
2019-02-25T16:22:51.453Z,16.80
2019-02-25T16:25:22.958Z,16.70
2019-02-25T16:27:54.148Z,16.50
2019-02-25T16:30:25.340Z,16.40
2019-02-25T16:32:54.879Z,16.20
2019-02-25T16:35:28.854Z,16.00
2019-02-25T16:38:00.292Z,15.80
2019-02-25T16:40:31.493Z,15.60
2019-02-25T16:43:04.654Z,15.40
2019-02-25T16:45:41.917Z,15.20
2019-02-25T16:48:11.865Z,15.00
2019-02-25T16:50:42.180Z,14.80
2019-02-25T16:53:14.849Z,14.70
2019-02-25T16:55:44.621Z,14.50
2019-02-25T16:58:14.037Z,14.40
2019-02-25T17:00:44.785Z,14.20
2019-02-25T17:03:16.079Z,14.00
2019-02-25T17:05:47.768Z,13.80
2019-02-25T17:08:21.722Z,13.60
2019-02-25T17:10:53.443Z,13.40
2019-02-25T17:13:22.597Z,13.30
2019-02-25T17:15:52.499Z,13.20
2019-02-25T17:18:22.084Z,13.10
2019-02-25T17:20:54.241Z,13.00
2019-02-25T17:23:27.179Z,13.00
2019-02-25T17:25:54.558Z,12.90
2019-02-25T17:28:25.016Z,12.80
2019-02-25T17:30:54.608Z,12.70
2019-02-25T17:33:24.023Z,12.60
2019-02-25T17:35:55.938Z,12.50
2019-02-25T17:38:26.497Z,12.40
2019-02-25T17:40:57.159Z,12.30
2019-02-25T17:43:26.564Z,12.10
2019-02-25T17:45:58.268Z,12.00
2019-02-25T17:48:27.660Z,11.90
2019-02-25T17:50:57.281Z,11.80
2019-02-25T17:53:28.305Z,11.60
2019-02-25T17:55:59.458Z,11.50
2019-02-25T17:58:29.149Z,11.30
2019-02-25T18:01:01.182Z,11.20
2019-02-25T18:03:31.851Z,11.10
2019-02-25T18:06:02.861Z,10.90
2019-02-25T18:08:32.245Z,10.80
2019-02-25T18:11:02.106Z,10.70
2019-02-25T18:13:32.455Z,10.60
2019-02-25T18:16:02.397Z,10.50
2019-02-25T18:18:31.466Z,10.40
2019-02-25T18:21:00.907Z,10.30
2019-02-25T18:23:30.839Z,10.20
2019-02-25T18:25:59.825Z,10.10
2019-02-25T18:28:29.250Z,10.00
2019-02-25T18:31:00.259Z,9.90
2019-02-25T18:33:33.309Z,9.80
2019-02-25T18:36:04.128Z,9.80
2019-02-25T18:38:33.787Z,9.70
2019-02-25T18:41:06.954Z,9.60
2019-02-25T18:43:37.438Z,9.50
2019-02-25T18:46:09.974Z,9.40
2019-02-25T18:51:24.150Z,9.20
2019-02-25T18:53:53.205Z,9.20
2019-02-25T18:56:23.599Z,9.10
2019-02-25T18:58:55.018Z,9.00
2019-02-25T19:01:23.619Z,9.00
2019-02-25T19:03:54.769Z,8.90
2019-02-25T19:06:25.625Z,8.90
2019-02-25T19:08:56.086Z,8.80
2019-02-25T19:11:29.192Z,8.80
2019-02-25T19:14:01.811Z,8.70
2019-02-25T19:16:29.644Z,8.60
2019-02-25T19:18:58.935Z,8.60
2019-02-25T19:21:31.941Z,8.50
2019-02-25T19:24:03.580Z,8.50
2019-02-25T19:26:38.067Z,8.40
2019-02-25T19:29:07.336Z,8.30
2019-02-25T19:31:39.884Z,8.30
2019-02-25T19:34:10.553Z,8.20
2019-02-25T19:36:41.229Z,8.10
2019-02-25T19:39:14.386Z,8.10
2019-02-25T19:41:47.010Z,8.00
2019-02-25T19:44:14.871Z,7.90
2019-02-25T19:46:45.670Z,7.90
2019-02-25T19:49:18.115Z,7.80
2019-02-25T19:51:47.976Z,7.80
2019-02-25T19:54:18.738Z,7.70
2019-02-25T19:56:48.426Z,7.70
2019-02-25T19:59:21.202Z,7.60
2019-02-25T20:01:51.730Z,7.50
2019-02-25T20:04:26.477Z,7.40
2019-02-25T20:06:58.040Z,7.40
2019-02-25T20:09:28.031Z,7.30
2019-02-25T20:12:01.321Z,7.30
2019-02-25T20:14:31.120Z,7.20
2019-02-25T20:16:59.894Z,7.20
2019-02-25T20:19:29.372Z,7.10
2019-02-25T20:21:59.201Z,7.10
2019-02-25T20:24:28.168Z,7.00
2019-02-25T20:27:02.319Z,7.00
2019-02-25T20:29:33.765Z,7.00
2019-02-25T20:32:05.835Z,6.90
2019-02-25T20:34:36.163Z,6.90
2019-02-25T20:37:05.232Z,6.90
2019-02-25T20:39:38.647Z,6.90
2019-02-25T20:42:08.575Z,6.80
2019-02-25T20:44:37.608Z,6.80
2019-02-25T20:47:07.951Z,6.80
2019-02-25T20:49:37.432Z,6.70
2019-02-25T20:52:06.585Z,6.70
2019-02-25T20:54:38.807Z,6.70
2019-02-25T20:57:08.448Z,6.60
2019-02-25T20:59:41.165Z,6.60
2019-02-25T21:02:15.813Z,6.50
2019-02-25T21:04:41.443Z,6.50
2019-02-25T21:07:13.096Z,6.50
2019-02-25T21:09:42.563Z,6.50
2019-02-25T21:12:13.250Z,6.40
2019-02-25T21:14:43.246Z,6.40
2019-02-25T21:17:16.031Z,6.40
2019-02-25T21:19:45.216Z,6.30
2019-02-25T21:22:14.587Z,6.30
2019-02-25T21:24:43.813Z,6.30
2019-02-25T21:27:14.067Z,6.30
2019-02-25T21:29:43.068Z,6.20
2019-02-25T21:32:15.035Z,6.20
2019-02-25T21:34:46.541Z,6.10
2019-02-25T21:37:18.782Z,6.10
2019-02-25T21:39:47.861Z,6.10
2019-02-25T21:42:17.723Z,6.10
2019-02-25T21:44:48.648Z,6.00
2019-02-25T21:47:20.173Z,6.00
2019-02-25T21:49:48.926Z,5.90
2019-02-25T21:52:18.777Z,5.90
2019-02-25T21:54:47.963Z,5.90
2019-02-25T21:57:16.940Z,5.90
2019-02-25T21:59:45.907Z,5.80
2019-02-25T22:02:15.558Z,5.80
2019-02-25T22:04:47.325Z,5.80
2019-02-25T22:07:20.040Z,5.70
2019-02-25T22:09:46.964Z,5.70
2019-02-25T22:12:16.568Z,5.70
2019-02-25T22:14:49.910Z,5.70
2019-02-25T22:17:20.764Z,5.70
2019-02-25T22:19:51.209Z,5.60
2019-02-25T22:22:24.187Z,5.60
2019-02-25T22:24:51.024Z,5.60
2019-02-25T22:27:22.922Z,5.50
2019-02-25T22:29:52.620Z,5.50
2019-02-25T22:32:21.860Z,5.50
2019-02-25T22:34:51.225Z,5.40
2019-02-25T22:37:22.620Z,5.40
2019-02-25T22:39:52.486Z,5.30
2019-02-25T22:42:21.906Z,5.30
2019-02-25T22:44:51.702Z,5.30
2019-02-25T22:47:23.034Z,5.20
2019-02-25T22:49:52.039Z,5.20
2019-02-25T22:52:22.293Z,5.20
2019-02-25T22:54:52.272Z,5.20
2019-02-25T22:57:23.184Z,5.20
2019-02-25T22:59:52.996Z,5.20
2019-02-25T23:02:27.321Z,5.20
2019-02-25T23:04:56.280Z,5.10
2019-02-25T23:07:25.307Z,5.10
2019-02-25T23:09:54.472Z,5.10
2019-02-25T23:12:24.244Z,5.10
2019-02-25T23:14:56.047Z,5.00
2019-02-25T23:17:25.513Z,5.00
2019-02-25T23:19:57.930Z,4.90
2019-02-25T23:22:28.225Z,5.00
2019-02-25T23:24:58.458Z,4.90
2019-02-25T23:27:29.637Z,4.90
2019-02-25T23:29:59.102Z,4.90
2019-02-25T23:32:27.932Z,4.90
2019-02-25T23:34:56.933Z,4.90
2019-02-25T23:37:25.954Z,4.80
2019-02-25T23:39:54.762Z,4.80
2019-02-25T23:42:23.832Z,4.80
2019-02-25T23:44:52.778Z,4.80
2019-02-25T23:47:24.960Z,4.80
2019-02-25T23:49:52.310Z,4.80
2019-02-25T23:52:21.336Z,4.70
2019-02-25T23:54:51.981Z,4.70
2019-02-25T23:57:21.724Z,4.60
2019-02-25T23:59:53.982Z,4.60
